首页
METAR-TAF:

METAR-TAF

机场 :

柏林-舍讷费尔德机场

柏林舍訥費爾德國際機場, 德国

纬度: 52-23N, 经度: 013-31E, 海拔: 47米

当前天气观测

该预报发布于16分钟前的16:50 UTC
风速7节,风向西转西南,在西南西转西北之间变化
温度 0°C
湿度 93%
气压 1021 hPa
能见度10公里或以上
散云层高于1500英尺

METAR: EDDB 241650Z 25007KT 230V290 9999 SCT015 00/M01 Q1021 BECMG BKN010

时间: 18:06 (17:06 UTC)

预报

该预报发布于6小时和6分钟前的11:00 UTC
预报有效从24日的 12点(UTC)到 25日的 12点(UTC)
风速5节,风向西转西南
能见度10公里或以上
1500米以下无云,无积雨云
成为
从 24日的 14点(UTC)到 24日的 17点(UTC)
多云层高于1000英尺
短暂存在
从 24日的 14点(UTC)到 24日的 17点(UTC)
能見度: 4000
多云层高于600英尺
轻雾
成为
从 24日的 17点(UTC)到 24日的 20点(UTC)
多云层高于600英尺
短暂存在
从 24日的 17点(UTC)到 25日的 12点(UTC)
能見度: 2000
多云层高于300英尺
轻雾

TAF: EDDB 241100Z 2412/2512 24005KT CAVOK BECMG 2414/2417 BKN010 TEMPO 2414/2417 4000 BR BKN006 BECMG 2417/2420 BKN006 TEMPO 2417/2512 2000 BR BKN003

超过4000个机场的气象观测和天气预报(METAR&TAF报告)。

可查询的气象台以黄色和红色小点在地图上表示。

将鼠标移到小点上方,可查看气象台名称。

然后点击查看天气观测和预报。

如需切换地图:点击带黑十字的绿色按钮放大地图;点击带横线的绿色按钮缩小地图;或者点击绿色箭头查看邻近地区的地图。


METAR-TAF: